sensor_id;sensor_type;location;lat;lon;timestamp;P1;durP1;ratioP1;P2;durP2;ratioP2
23310;SDS011;11828;51.508;18.118;2022-12-07T00:01:25;9.27;;;5.85;;
23310;SDS011;11828;51.508;18.118;2022-12-07T00:03:58;9.40;;;5.78;;
23310;SDS011;11828;51.508;18.118;2022-12-07T00:06:33;9.25;;;5.70;;
23310;SDS011;11828;51.508;18.118;2022-12-07T00:09:02;8.82;;;5.93;;
23310;SDS011;11828;51.508;18.118;2022-12-07T00:11:30;9.45;;;6.05;;
23310;SDS011;11828;51.508;18.118;2022-12-07T00:13:58;7.68;;;5.30;;
23310;SDS011;11828;51.508;18.118;2022-12-07T00:16:30;8.30;;;5.10;;
23310;SDS011;11828;51.508;18.118;2022-12-07T00:18:57;8.52;;;5.40;;
23310;SDS011;11828;51.508;18.118;2022-12-07T00:21:25;7.20;;;5.10;;
23310;SDS011;11828;51.508;18.118;2022-12-07T00:23:54;10.52;;;6.43;;
23310;SDS011;11828;51.508;18.118;2022-12-07T00:28:57;8.65;;;5.93;;
23310;SDS011;11828;51.508;18.118;2022-12-07T00:31:28;8.60;;;5.30;;
23310;SDS011;11828;51.508;18.118;2022-12-07T00:33:58;7.65;;;5.25;;
23310;SDS011;11828;51.508;18.118;2022-12-07T00:36:25;7.18;;;5.22;;
23310;SDS011;11828;51.508;18.118;2022-12-07T00:38:51;8.20;;;5.88;;
23310;SDS011;11828;51.508;18.118;2022-12-07T00:41:19;9.85;;;6.05;;
23310;SDS011;11828;51.508;18.118;2022-12-07T00:43:48;8.40;;;5.65;;
23310;SDS011;11828;51.508;18.118;2022-12-07T00:46:15;8.45;;;5.60;;
23310;SDS011;11828;51.508;18.118;2022-12-07T00:48:42;8.77;;;5.30;;
23310;SDS011;11828;51.508;18.118;2022-12-07T00:51:09;8.52;;;4.95;;
23310;SDS011;11828;51.508;18.118;2022-12-07T00:53:41;9.15;;;5.40;;
23310;SDS011;11828;51.508;18.118;2022-12-07T00:56:11;7.75;;;5.18;;
23310;SDS011;11828;51.508;18.118;2022-12-07T00:58:44;7.20;;;4.65;;
23310;SDS011;11828;51.508;18.118;2022-12-07T01:01:26;6.95;;;4.57;;
23310;SDS011;11828;51.508;18.118;2022-12-07T01:03:56;7.57;;;5.13;;
23310;SDS011;11828;51.508;18.118;2022-12-07T01:06:22;8.10;;;5.40;;
23310;SDS011;11828;51.508;18.118;2022-12-07T01:08:50;7.75;;;5.07;;
23310;SDS011;11828;51.508;18.118;2022-12-07T01:11:18;7.43;;;4.75;;
23310;SDS011;11828;51.508;18.118;2022-12-07T01:13:49;6.32;;;4.28;;
23310;SDS011;11828;51.508;18.118;2022-12-07T01:16:17;7.28;;;4.80;;
23310;SDS011;11828;51.508;18.118;2022-12-07T01:18:45;8.50;;;5.03;;
23310;SDS011;11828;51.508;18.118;2022-12-07T01:21:18;8.43;;;5.20;;
23310;SDS011;11828;51.508;18.118;2022-12-07T01:23:52;6.88;;;5.18;;
23310;SDS011;11828;51.508;18.118;2022-12-07T01:26:20;7.32;;;4.63;;
23310;SDS011;11828;51.508;18.118;2022-12-07T01:28:49;7.35;;;4.80;;
23310;SDS011;11828;51.508;18.118;2022-12-07T01:31:17;6.97;;;4.78;;
23310;SDS011;11828;51.508;18.118;2022-12-07T01:33:47;6.95;;;5.15;;
23310;SDS011;11828;51.508;18.118;2022-12-07T01:38:49;6.75;;;4.38;;
23310;SDS011;11828;51.508;18.118;2022-12-07T01:41:18;8.90;;;4.60;;
23310;SDS011;11828;51.508;18.118;2022-12-07T01:44:08;8.98;;;5.72;;
23310;SDS011;11828;51.508;18.118;2022-12-07T01:46:51;10.02;;;7.40;;
23310;SDS011;11828;51.508;18.118;2022-12-07T01:52:22;9.00;;;6.18;;
23310;SDS011;11828;51.508;18.118;2022-12-07T01:54:53;11.85;;;6.68;;
23310;SDS011;11828;51.508;18.118;2022-12-07T01:57:24;10.02;;;7.00;;
23310;SDS011;11828;51.508;18.118;2022-12-07T01:59:50;13.00;;;7.75;;
23310;SDS011;11828;51.508;18.118;2022-12-07T02:02:31;11.65;;;8.98;;
23310;SDS011;11828;51.508;18.118;2022-12-07T02:05:04;20.75;;;14.68;;
23310;SDS011;11828;51.508;18.118;2022-12-07T02:07:32;19.73;;;15.23;;
23310;SDS011;11828;51.508;18.118;2022-12-07T02:10:12;19.65;;;14.07;;
23310;SDS011;11828;51.508;18.118;2022-12-07T02:12:38;18.88;;;13.50;;
23310;SDS011;11828;51.508;18.118;2022-12-07T02:15:05;17.02;;;11.13;;
23310;SDS011;11828;51.508;18.118;2022-12-07T02:17:32;13.85;;;9.77;;
23310;SDS011;11828;51.508;18.118;2022-12-07T02:26:26;8.00;;;5.00;;
23310;SDS011;11828;51.508;18.118;2022-12-07T02:34:52;8.25;;;4.72;;
23310;SDS011;11828;51.508;18.118;2022-12-07T02:40:25;6.95;;;4.72;;
23310;SDS011;11828;51.508;18.118;2022-12-07T02:43:16;7.22;;;4.70;;
23310;SDS011;11828;51.508;18.118;2022-12-07T02:45:50;5.72;;;4.03;;
23310;SDS011;11828;51.508;18.118;2022-12-07T02:48:20;5.35;;;3.85;;
23310;SDS011;11828;51.508;18.118;2022-12-07T02:50:50;4.57;;;3.55;;
23310;SDS011;11828;51.508;18.118;2022-12-07T02:53:28;6.28;;;4.10;;
23310;SDS011;11828;51.508;18.118;2022-12-07T02:56:07;5.70;;;4.00;;
23310;SDS011;11828;51.508;18.118;2022-12-07T02:59:07;5.20;;;3.70;;
23310;SDS011;11828;51.508;18.118;2022-12-07T03:13:36;5.43;;;3.95;;
23310;SDS011;11828;51.508;18.118;2022-12-07T03:16:43;4.93;;;3.50;;
23310;SDS011;11828;51.508;18.118;2022-12-07T03:19:18;7.07;;;4.07;;
23310;SDS011;11828;51.508;18.118;2022-12-07T03:21:54;5.28;;;3.30;;
23310;SDS011;11828;51.508;18.118;2022-12-07T03:24:27;5.95;;;3.92;;
23310;SDS011;11828;51.508;18.118;2022-12-07T03:27:04;5.82;;;3.80;;
23310;SDS011;11828;51.508;18.118;2022-12-07T03:29:42;5.90;;;3.40;;
23310;SDS011;11828;51.508;18.118;2022-12-07T03:32:48;4.90;;;3.22;;
23310;SDS011;11828;51.508;18.118;2022-12-07T03:38:23;5.82;;;3.70;;
23310;SDS011;11828;51.508;18.118;2022-12-07T03:41:29;5.43;;;3.30;;
23310;SDS011;11828;51.508;18.118;2022-12-07T03:43:59;6.53;;;3.58;;
23310;SDS011;11828;51.508;18.118;2022-12-07T03:52:44;5.28;;;3.40;;
23310;SDS011;11828;51.508;18.118;2022-12-07T03:55:38;6.22;;;3.90;;
23310;SDS011;11828;51.508;18.118;2022-12-07T03:58:12;5.28;;;3.10;;
23310;SDS011;11828;51.508;18.118;2022-12-07T04:00:43;4.90;;;3.10;;
23310;SDS011;11828;51.508;18.118;2022-12-07T04:03:11;4.07;;;2.97;;
23310;SDS011;11828;51.508;18.118;2022-12-07T04:05:38;5.45;;;3.50;;
23310;SDS011;11828;51.508;18.118;2022-12-07T04:08:05;4.90;;;3.20;;
23310;SDS011;11828;51.508;18.118;2022-12-07T04:10:31;5.10;;;3.38;;
23310;SDS011;11828;51.508;18.118;2022-12-07T04:12:57;4.38;;;3.00;;
23310;SDS011;11828;51.508;18.118;2022-12-07T04:15:23;5.05;;;3.60;;
23310;SDS011;11828;51.508;18.118;2022-12-07T04:17:49;5.05;;;3.40;;
23310;SDS011;11828;51.508;18.118;2022-12-07T04:20:16;4.05;;;3.00;;
23310;SDS011;11828;51.508;18.118;2022-12-07T04:22:42;5.28;;;2.95;;
23310;SDS011;11828;51.508;18.118;2022-12-07T04:25:08;5.20;;;3.10;;
23310;SDS011;11828;51.508;18.118;2022-12-07T04:27:34;4.90;;;3.47;;
23310;SDS011;11828;51.508;18.118;2022-12-07T04:30:01;4.68;;;3.25;;
23310;SDS011;11828;51.508;18.118;2022-12-07T04:32:28;4.43;;;3.30;;
23310;SDS011;11828;51.508;18.118;2022-12-07T04:34:54;5.78;;;3.17;;
23310;SDS011;11828;51.508;18.118;2022-12-07T04:37:20;4.85;;;3.60;;
23310;SDS011;11828;51.508;18.118;2022-12-07T04:39:47;4.05;;;3.00;;
23310;SDS011;11828;51.508;18.118;2022-12-07T04:42:13;4.90;;;3.47;;
23310;SDS011;11828;51.508;18.118;2022-12-07T04:44:39;4.25;;;3.05;;
23310;SDS011;11828;51.508;18.118;2022-12-07T04:47:05;4.55;;;2.97;;
23310;SDS011;11828;51.508;18.118;2022-12-07T04:49:32;4.30;;;3.10;;
23310;SDS011;11828;51.508;18.118;2022-12-07T04:51:58;7.85;;;3.42;;
23310;SDS011;11828;51.508;18.118;2022-12-07T04:54:24;4.07;;;3.00;;
23310;SDS011;11828;51.508;18.118;2022-12-07T04:56:50;3.95;;;2.83;;
23310;SDS011;11828;51.508;18.118;2022-12-07T04:59:16;3.97;;;3.22;;
23310;SDS011;11828;51.508;18.118;2022-12-07T05:01:42;4.68;;;3.55;;
23310;SDS011;11828;51.508;18.118;2022-12-07T05:04:09;5.72;;;3.22;;
23310;SDS011;11828;51.508;18.118;2022-12-07T05:06:35;5.07;;;3.63;;
23310;SDS011;11828;51.508;18.118;2022-12-07T05:09:02;5.38;;;3.63;;
23310;SDS011;11828;51.508;18.118;2022-12-07T05:11:29;7.30;;;5.13;;
23310;SDS011;11828;51.508;18.118;2022-12-07T05:14:12;10.93;;;7.05;;
23310;SDS011;11828;51.508;18.118;2022-12-07T05:16:40;16.30;;;10.52;;
23310;SDS011;11828;51.508;18.118;2022-12-07T05:19:09;14.30;;;8.05;;
23310;SDS011;11828;51.508;18.118;2022-12-07T05:21:36;7.30;;;5.25;;
23310;SDS011;11828;51.508;18.118;2022-12-07T05:24:03;6.65;;;3.88;;
23310;SDS011;11828;51.508;18.118;2022-12-07T05:26:30;6.15;;;3.88;;
23310;SDS011;11828;51.508;18.118;2022-12-07T05:28:56;5.20;;;3.58;;
23310;SDS011;11828;51.508;18.118;2022-12-07T05:31:23;7.53;;;4.53;;
23310;SDS011;11828;51.508;18.118;2022-12-07T05:33:51;6.78;;;4.45;;
23310;SDS011;11828;51.508;18.118;2022-12-07T05:36:17;4.25;;;3.45;;
23310;SDS011;11828;51.508;18.118;2022-12-07T05:38:44;5.43;;;3.47;;
23310;SDS011;11828;51.508;18.118;2022-12-07T05:41:12;5.63;;;3.60;;
23310;SDS011;11828;51.508;18.118;2022-12-07T05:44:00;9.40;;;4.95;;
23310;SDS011;11828;51.508;18.118;2022-12-07T05:46:26;8.90;;;4.43;;
23310;SDS011;11828;51.508;18.118;2022-12-07T05:48:53;14.70;;;6.32;;
23310;SDS011;11828;51.508;18.118;2022-12-07T05:51:19;12.20;;;6.18;;
23310;SDS011;11828;51.508;18.118;2022-12-07T05:53:45;12.95;;;6.30;;
23310;SDS011;11828;51.508;18.118;2022-12-07T05:56:11;14.93;;;6.03;;
23310;SDS011;11828;51.508;18.118;2022-12-07T05:58:38;10.07;;;5.15;;
23310;SDS011;11828;51.508;18.118;2022-12-07T06:01:22;9.77;;;5.25;;
23310;SDS011;11828;51.508;18.118;2022-12-07T06:03:49;7.50;;;4.20;;
23310;SDS011;11828;51.508;18.118;2022-12-07T06:06:15;6.88;;;4.10;;
23310;SDS011;11828;51.508;18.118;2022-12-07T06:08:41;10.05;;;4.72;;
23310;SDS011;11828;51.508;18.118;2022-12-07T06:11:07;9.13;;;4.60;;
23310;SDS011;11828;51.508;18.118;2022-12-07T06:13:52;9.93;;;5.50;;
23310;SDS011;11828;51.508;18.118;2022-12-07T06:16:18;9.90;;;5.00;;
23310;SDS011;11828;51.508;18.118;2022-12-07T06:18:44;7.20;;;4.18;;
23310;SDS011;11828;51.508;18.118;2022-12-07T06:21:10;5.55;;;3.80;;
23310;SDS011;11828;51.508;18.118;2022-12-07T06:23:36;8.63;;;4.72;;
23310;SDS011;11828;51.508;18.118;2022-12-07T06:26:02;7.88;;;4.32;;
23310;SDS011;11828;51.508;18.118;2022-12-07T06:28:29;8.90;;;5.00;;
23310;SDS011;11828;51.508;18.118;2022-12-07T06:30:58;10.70;;;5.75;;
23310;SDS011;11828;51.508;18.118;2022-12-07T06:33:26;7.97;;;4.95;;
23310;SDS011;11828;51.508;18.118;2022-12-07T06:35:53;11.23;;;6.00;;
23310;SDS011;11828;51.508;18.118;2022-12-07T06:38:20;9.43;;;5.85;;
23310;SDS011;11828;51.508;18.118;2022-12-07T06:40:46;8.80;;;5.30;;
23310;SDS011;11828;51.508;18.118;2022-12-07T06:43:13;9.27;;;5.78;;
23310;SDS011;11828;51.508;18.118;2022-12-07T06:45:40;13.23;;;7.05;;
23310;SDS011;11828;51.508;18.118;2022-12-07T06:48:07;11.75;;;7.00;;
23310;SDS011;11828;51.508;18.118;2022-12-07T06:50:33;12.65;;;7.13;;
23310;SDS011;11828;51.508;18.118;2022-12-07T06:52:59;11.32;;;6.35;;
23310;SDS011;11828;51.508;18.118;2022-12-07T06:55:25;10.48;;;6.63;;
23310;SDS011;11828;51.508;18.118;2022-12-07T06:57:52;11.55;;;7.63;;
23310;SDS011;11828;51.508;18.118;2022-12-07T07:00:18;15.88;;;9.85;;
23310;SDS011;11828;51.508;18.118;2022-12-07T07:02:44;20.02;;;10.23;;
23310;SDS011;11828;51.508;18.118;2022-12-07T07:05:10;15.77;;;10.02;;
23310;SDS011;11828;51.508;18.118;2022-12-07T07:07:37;23.90;;;13.20;;
23310;SDS011;11828;51.508;18.118;2022-12-07T07:10:03;24.95;;;14.20;;
23310;SDS011;11828;51.508;18.118;2022-12-07T07:12:30;17.73;;;10.07;;
23310;SDS011;11828;51.508;18.118;2022-12-07T07:14:56;10.93;;;7.30;;
23310;SDS011;11828;51.508;18.118;2022-12-07T07:17:22;12.48;;;7.90;;
23310;SDS011;11828;51.508;18.118;2022-12-07T07:19:48;11.63;;;7.20;;
23310;SDS011;11828;51.508;18.118;2022-12-07T07:22:14;8.95;;;6.65;;
23310;SDS011;11828;51.508;18.118;2022-12-07T07:24:40;9.13;;;6.32;;
23310;SDS011;11828;51.508;18.118;2022-12-07T07:27:07;10.23;;;7.28;;
23310;SDS011;11828;51.508;18.118;2022-12-07T07:29:41;12.40;;;5.93;;
23310;SDS011;11828;51.508;18.118;2022-12-07T07:32:08;8.70;;;5.28;;
23310;SDS011;11828;51.508;18.118;2022-12-07T07:34:34;7.28;;;4.90;;
23310;SDS011;11828;51.508;18.118;2022-12-07T07:37:00;5.60;;;4.07;;
23310;SDS011;11828;51.508;18.118;2022-12-07T07:39:26;10.63;;;6.80;;
23310;SDS011;11828;51.508;18.118;2022-12-07T07:41:52;12.10;;;7.15;;
23310;SDS011;11828;51.508;18.118;2022-12-07T07:44:18;9.48;;;5.38;;
23310;SDS011;11828;51.508;18.118;2022-12-07T07:46:44;10.02;;;6.47;;
23310;SDS011;11828;51.508;18.118;2022-12-07T07:49:10;9.40;;;5.90;;
23310;SDS011;11828;51.508;18.118;2022-12-07T07:51:38;9.45;;;6.80;;
23310;SDS011;11828;51.508;18.118;2022-12-07T07:54:04;9.50;;;6.38;;
23310;SDS011;11828;51.508;18.118;2022-12-07T07:56:30;8.15;;;5.72;;
23310;SDS011;11828;51.508;18.118;2022-12-07T07:58:56;8.55;;;5.93;;
23310;SDS011;11828;51.508;18.118;2022-12-07T08:01:22;13.82;;;8.43;;
23310;SDS011;11828;51.508;18.118;2022-12-07T08:03:50;13.93;;;8.35;;
23310;SDS011;11828;51.508;18.118;2022-12-07T08:06:16;8.50;;;5.75;;
23310;SDS011;11828;51.508;18.118;2022-12-07T08:08:42;8.15;;;5.20;;
23310;SDS011;11828;51.508;18.118;2022-12-07T08:11:09;8.95;;;5.60;;
23310;SDS011;11828;51.508;18.118;2022-12-07T08:13:35;9.60;;;5.95;;
23310;SDS011;11828;51.508;18.118;2022-12-07T08:16:05;7.18;;;4.78;;
23310;SDS011;11828;51.508;18.118;2022-12-07T08:18:40;7.68;;;5.20;;
23310;SDS011;11828;51.508;18.118;2022-12-07T08:21:08;9.25;;;5.15;;
23310;SDS011;11828;51.508;18.118;2022-12-07T08:23:38;9.38;;;6.47;;
23310;SDS011;11828;51.508;18.118;2022-12-07T08:26:06;8.45;;;5.63;;
23310;SDS011;11828;51.508;18.118;2022-12-07T08:28:36;10.70;;;7.18;;
23310;SDS011;11828;51.508;18.118;2022-12-07T08:31:04;10.05;;;6.82;;
23310;SDS011;11828;51.508;18.118;2022-12-07T08:33:37;11.65;;;7.93;;
23310;SDS011;11828;51.508;18.118;2022-12-07T08:36:05;14.07;;;9.52;;
23310;SDS011;11828;51.508;18.118;2022-12-07T08:38:34;12.85;;;8.60;;
23310;SDS011;11828;51.508;18.118;2022-12-07T08:41:01;9.48;;;6.38;;
23310;SDS011;11828;51.508;18.118;2022-12-07T08:43:28;8.00;;;6.07;;
23310;SDS011;11828;51.508;18.118;2022-12-07T08:46:41;10.43;;;6.05;;
23310;SDS011;11828;51.508;18.118;2022-12-07T08:49:10;10.05;;;5.55;;
23310;SDS011;11828;51.508;18.118;2022-12-07T08:51:42;9.50;;;5.80;;
23310;SDS011;11828;51.508;18.118;2022-12-07T08:54:09;8.98;;;6.10;;
23310;SDS011;11828;51.508;18.118;2022-12-07T08:56:40;16.80;;;9.27;;
23310;SDS011;11828;51.508;18.118;2022-12-07T08:59:07;15.90;;;9.85;;
23310;SDS011;11828;51.508;18.118;2022-12-07T09:01:34;19.40;;;9.63;;
23310;SDS011;11828;51.508;18.118;2022-12-07T09:04:00;10.43;;;6.35;;
23310;SDS011;11828;51.508;18.118;2022-12-07T09:06:28;8.75;;;6.20;;
23310;SDS011;11828;51.508;18.118;2022-12-07T09:08:55;9.68;;;6.13;;
23310;SDS011;11828;51.508;18.118;2022-12-07T09:11:24;10.40;;;6.40;;
23310;SDS011;11828;51.508;18.118;2022-12-07T09:13:50;12.15;;;6.80;;
23310;SDS011;11828;51.508;18.118;2022-12-07T09:16:16;8.40;;;5.30;;
23310;SDS011;11828;51.508;18.118;2022-12-07T09:18:42;13.85;;;7.28;;
23310;SDS011;11828;51.508;18.118;2022-12-07T09:21:09;10.27;;;5.82;;
23310;SDS011;11828;51.508;18.118;2022-12-07T09:23:35;8.18;;;5.43;;
23310;SDS011;11828;51.508;18.118;2022-12-07T09:26:02;8.98;;;5.15;;
23310;SDS011;11828;51.508;18.118;2022-12-07T09:28:30;8.77;;;5.32;;
23310;SDS011;11828;51.508;18.118;2022-12-07T09:30:57;11.77;;;6.55;;
23310;SDS011;11828;51.508;18.118;2022-12-07T09:33:23;12.77;;;8.20;;
23310;SDS011;11828;51.508;18.118;2022-12-07T09:35:50;13.00;;;7.50;;
23310;SDS011;11828;51.508;18.118;2022-12-07T09:38:18;12.80;;;7.95;;
23310;SDS011;11828;51.508;18.118;2022-12-07T09:40:45;9.85;;;6.00;;
23310;SDS011;11828;51.508;18.118;2022-12-07T09:43:13;13.82;;;8.13;;
23310;SDS011;11828;51.508;18.118;2022-12-07T09:45:55;9.95;;;6.53;;
23310;SDS011;11828;51.508;18.118;2022-12-07T09:48:35;11.73;;;6.57;;
23310;SDS011;11828;51.508;18.118;2022-12-07T09:53:45;10.00;;;6.50;;
23310;SDS011;11828;51.508;18.118;2022-12-07T09:56:18;9.57;;;6.30;;
23310;SDS011;11828;51.508;18.118;2022-12-07T09:58:45;10.55;;;6.18;;
23310;SDS011;11828;51.508;18.118;2022-12-07T10:03:50;11.45;;;6.18;;
23310;SDS011;11828;51.508;18.118;2022-12-07T10:06:17;11.38;;;5.82;;
23310;SDS011;11828;51.508;18.118;2022-12-07T10:08:43;11.38;;;6.30;;
23310;SDS011;11828;51.508;18.118;2022-12-07T10:11:09;12.60;;;6.70;;
23310;SDS011;11828;51.508;18.118;2022-12-07T10:13:46;20.08;;;9.68;;
23310;SDS011;11828;51.508;18.118;2022-12-07T10:18:51;10.70;;;6.10;;
23310;SDS011;11828;51.508;18.118;2022-12-07T10:21:20;10.40;;;6.43;;
23310;SDS011;11828;51.508;18.118;2022-12-07T10:31:58;12.15;;;6.93;;
23310;SDS011;11828;51.508;18.118;2022-12-07T10:34:45;13.07;;;7.35;;
23310;SDS011;11828;51.508;18.118;2022-12-07T10:42:21;15.02;;;8.27;;
23310;SDS011;11828;51.508;18.118;2022-12-07T10:45:13;22.38;;;10.73;;
23310;SDS011;11828;51.508;18.118;2022-12-07T10:51:05;20.13;;;10.20;;
23310;SDS011;11828;51.508;18.118;2022-12-07T11:02:31;15.23;;;8.65;;
23310;SDS011;11828;51.508;18.118;2022-12-07T11:07:59;17.45;;;8.48;;
23310;SDS011;11828;51.508;18.118;2022-12-07T11:13:48;18.50;;;9.68;;
23310;SDS011;11828;51.508;18.118;2022-12-07T11:37:40;15.70;;;8.73;;
23310;SDS011;11828;51.508;18.118;2022-12-07T11:43:03;21.20;;;10.88;;
23310;SDS011;11828;51.508;18.118;2022-12-07T11:45:36;29.38;;;16.50;;
23310;SDS011;11828;51.508;18.118;2022-12-07T11:48:14;18.10;;;10.40;;
23310;SDS011;11828;51.508;18.118;2022-12-07T11:50:53;24.40;;;12.73;;
23310;SDS011;11828;51.508;18.118;2022-12-07T11:53:25;18.60;;;10.70;;
23310;SDS011;11828;51.508;18.118;2022-12-07T11:56:09;18.13;;;9.77;;
23310;SDS011;11828;51.508;18.118;2022-12-07T12:01:53;19.80;;;9.60;;
23310;SDS011;11828;51.508;18.118;2022-12-07T12:04:51;23.42;;;12.05;;
23310;SDS011;11828;51.508;18.118;2022-12-07T12:07:28;20.23;;;11.00;;
23310;SDS011;11828;51.508;18.118;2022-12-07T12:10:18;20.13;;;10.73;;
23310;SDS011;11828;51.508;18.118;2022-12-07T12:22:32;29.17;;;14.45;;
23310;SDS011;11828;51.508;18.118;2022-12-07T12:24:59;25.65;;;12.40;;
23310;SDS011;11828;51.508;18.118;2022-12-07T12:27:30;31.55;;;13.70;;
23310;SDS011;11828;51.508;18.118;2022-12-07T12:30:02;24.13;;;11.90;;
23310;SDS011;11828;51.508;18.118;2022-12-07T12:32:42;19.23;;;10.35;;
23310;SDS011;11828;51.508;18.118;2022-12-07T12:40:53;25.52;;;12.55;;
23310;SDS011;11828;51.508;18.118;2022-12-07T12:43:40;20.65;;;11.50;;
23310;SDS011;11828;51.508;18.118;2022-12-07T12:47:37;25.98;;;13.65;;
23310;SDS011;11828;51.508;18.118;2022-12-07T12:57:35;16.83;;;8.77;;
23310;SDS011;11828;51.508;18.118;2022-12-07T13:05:16;16.73;;;9.10;;
23310;SDS011;11828;51.508;18.118;2022-12-07T13:07:58;19.98;;;10.15;;
23310;SDS011;11828;51.508;18.118;2022-12-07T13:15:37;23.77;;;10.80;;
23310;SDS011;11828;51.508;18.118;2022-12-07T13:21:00;13.25;;;7.45;;
23310;SDS011;11828;51.508;18.118;2022-12-07T13:23:34;12.63;;;7.63;;
23310;SDS011;11828;51.508;18.118;2022-12-07T13:31:14;17.70;;;10.90;;
23310;SDS011;11828;51.508;18.118;2022-12-07T13:33:53;20.00;;;11.35;;
23310;SDS011;11828;51.508;18.118;2022-12-07T13:36:23;17.92;;;10.60;;
23310;SDS011;11828;51.508;18.118;2022-12-07T13:38:56;16.20;;;10.07;;
23310;SDS011;11828;51.508;18.118;2022-12-07T13:41:26;13.25;;;7.78;;
23310;SDS011;11828;51.508;18.118;2022-12-07T13:43:59;11.68;;;6.75;;
23310;SDS011;11828;51.508;18.118;2022-12-07T13:46:40;15.82;;;8.60;;
23310;SDS011;11828;51.508;18.118;2022-12-07T13:49:18;18.58;;;9.95;;
23310;SDS011;11828;51.508;18.118;2022-12-07T13:51:46;18.30;;;9.65;;
23310;SDS011;11828;51.508;18.118;2022-12-07T13:54:13;22.55;;;13.35;;
23310;SDS011;11828;51.508;18.118;2022-12-07T13:56:40;26.83;;;12.20;;
23310;SDS011;11828;51.508;18.118;2022-12-07T13:59:16;32.38;;;12.07;;
23310;SDS011;11828;51.508;18.118;2022-12-07T14:01:46;24.20;;;11.15;;
23310;SDS011;11828;51.508;18.118;2022-12-07T14:04:31;28.58;;;11.40;;
23310;SDS011;11828;51.508;18.118;2022-12-07T14:07:15;20.23;;;10.50;;
23310;SDS011;11828;51.508;18.118;2022-12-07T14:10:22;24.42;;;11.40;;
23310;SDS011;11828;51.508;18.118;2022-12-07T14:13:01;25.48;;;11.70;;
23310;SDS011;11828;51.508;18.118;2022-12-07T14:15:30;24.58;;;11.82;;
23310;SDS011;11828;51.508;18.118;2022-12-07T14:17:59;22.20;;;10.93;;
23310;SDS011;11828;51.508;18.118;2022-12-07T14:20:39;21.23;;;9.57;;
23310;SDS011;11828;51.508;18.118;2022-12-07T14:23:21;24.55;;;10.30;;
23310;SDS011;11828;51.508;18.118;2022-12-07T14:25:52;20.17;;;9.25;;
23310;SDS011;11828;51.508;18.118;2022-12-07T14:28:29;27.60;;;14.07;;
23310;SDS011;11828;51.508;18.118;2022-12-07T14:30:59;19.20;;;9.23;;
23310;SDS011;11828;51.508;18.118;2022-12-07T14:33:26;21.17;;;10.25;;
23310;SDS011;11828;51.508;18.118;2022-12-07T14:35:53;18.67;;;10.05;;
23310;SDS011;11828;51.508;18.118;2022-12-07T14:38:23;17.17;;;9.85;;
23310;SDS011;11828;51.508;18.118;2022-12-07T14:40:50;14.93;;;7.50;;
23310;SDS011;11828;51.508;18.118;2022-12-07T14:43:18;17.75;;;8.80;;
23310;SDS011;11828;51.508;18.118;2022-12-07T14:45:45;18.88;;;9.20;;
23310;SDS011;11828;51.508;18.118;2022-12-07T14:48:12;18.70;;;9.18;;
23310;SDS011;11828;51.508;18.118;2022-12-07T14:50:42;18.92;;;9.00;;
23310;SDS011;11828;51.508;18.118;2022-12-07T14:53:17;17.85;;;8.43;;
23310;SDS011;11828;51.508;18.118;2022-12-07T14:55:47;17.13;;;8.05;;
23310;SDS011;11828;51.508;18.118;2022-12-07T14:58:16;23.45;;;9.20;;
23310;SDS011;11828;51.508;18.118;2022-12-07T15:00:43;29.40;;;10.48;;
23310;SDS011;11828;51.508;18.118;2022-12-07T15:03:10;22.67;;;11.52;;
23310;SDS011;11828;51.508;18.118;2022-12-07T15:05:38;22.77;;;11.07;;
23310;SDS011;11828;51.508;18.118;2022-12-07T15:08:07;25.75;;;12.23;;
23310;SDS011;11828;51.508;18.118;2022-12-07T15:10:36;25.33;;;11.38;;
23310;SDS011;11828;51.508;18.118;2022-12-07T15:13:03;15.25;;;8.43;;
23310;SDS011;11828;51.508;18.118;2022-12-07T15:15:49;14.75;;;7.45;;
23310;SDS011;11828;51.508;18.118;2022-12-07T15:18:17;18.85;;;9.15;;
23310;SDS011;11828;51.508;18.118;2022-12-07T15:20:44;14.75;;;8.00;;
23310;SDS011;11828;51.508;18.118;2022-12-07T15:23:11;18.35;;;9.20;;
23310;SDS011;11828;51.508;18.118;2022-12-07T15:25:41;26.02;;;13.57;;
23310;SDS011;11828;51.508;18.118;2022-12-07T15:28:12;18.23;;;9.43;;
23310;SDS011;11828;51.508;18.118;2022-12-07T15:30:40;17.20;;;9.32;;
23310;SDS011;11828;51.508;18.118;2022-12-07T15:33:08;17.48;;;8.20;;
23310;SDS011;11828;51.508;18.118;2022-12-07T15:35:39;16.75;;;8.57;;
23310;SDS011;11828;51.508;18.118;2022-12-07T15:38:09;16.67;;;9.38;;
23310;SDS011;11828;51.508;18.118;2022-12-07T15:40:36;18.27;;;9.90;;
23310;SDS011;11828;51.508;18.118;2022-12-07T15:43:02;15.45;;;8.40;;
23310;SDS011;11828;51.508;18.118;2022-12-07T15:45:29;19.10;;;11.30;;
23310;SDS011;11828;51.508;18.118;2022-12-07T15:47:55;26.98;;;15.05;;
23310;SDS011;11828;51.508;18.118;2022-12-07T15:50:22;38.88;;;21.67;;
23310;SDS011;11828;51.508;18.118;2022-12-07T15:52:48;36.58;;;19.60;;
23310;SDS011;11828;51.508;18.118;2022-12-07T15:55:14;37.80;;;17.73;;
23310;SDS011;11828;51.508;18.118;2022-12-07T15:57:40;25.70;;;13.45;;
23310;SDS011;11828;51.508;18.118;2022-12-07T16:00:07;25.27;;;12.05;;
23310;SDS011;11828;51.508;18.118;2022-12-07T16:02:36;23.42;;;12.10;;
23310;SDS011;11828;51.508;18.118;2022-12-07T16:05:02;30.33;;;14.57;;
23310;SDS011;11828;51.508;18.118;2022-12-07T16:07:29;18.65;;;10.43;;
23310;SDS011;11828;51.508;18.118;2022-12-07T16:09:55;15.02;;;8.27;;
23310;SDS011;11828;51.508;18.118;2022-12-07T16:12:21;9.77;;;5.75;;
23310;SDS011;11828;51.508;18.118;2022-12-07T16:14:47;8.77;;;5.13;;
23310;SDS011;11828;51.508;18.118;2022-12-07T16:17:13;10.02;;;6.10;;
23310;SDS011;11828;51.508;18.118;2022-12-07T16:19:40;10.85;;;5.95;;
23310;SDS011;11828;51.508;18.118;2022-12-07T16:22:06;10.25;;;5.15;;
23310;SDS011;11828;51.508;18.118;2022-12-07T16:24:32;6.78;;;4.60;;
23310;SDS011;11828;51.508;18.118;2022-12-07T16:26:58;10.05;;;5.80;;
23310;SDS011;11828;51.508;18.118;2022-12-07T16:29:24;9.93;;;5.80;;
23310;SDS011;11828;51.508;18.118;2022-12-07T16:31:51;12.40;;;6.55;;
23310;SDS011;11828;51.508;18.118;2022-12-07T16:34:17;13.90;;;8.10;;
23310;SDS011;11828;51.508;18.118;2022-12-07T16:36:44;12.55;;;7.20;;
23310;SDS011;11828;51.508;18.118;2022-12-07T16:39:11;10.45;;;6.63;;
23310;SDS011;11828;51.508;18.118;2022-12-07T16:41:37;8.25;;;4.80;;
23310;SDS011;11828;51.508;18.118;2022-12-07T16:44:04;10.60;;;6.20;;
23310;SDS011;11828;51.508;18.118;2022-12-07T16:46:33;10.75;;;6.57;;
23310;SDS011;11828;51.508;18.118;2022-12-07T16:49:01;12.13;;;6.03;;
23310;SDS011;11828;51.508;18.118;2022-12-07T16:51:28;9.45;;;5.65;;
23310;SDS011;11828;51.508;18.118;2022-12-07T16:53:55;8.63;;;4.90;;
23310;SDS011;11828;51.508;18.118;2022-12-07T16:56:21;8.45;;;5.07;;
23310;SDS011;11828;51.508;18.118;2022-12-07T16:58:47;10.95;;;5.50;;
23310;SDS011;11828;51.508;18.118;2022-12-07T17:01:16;14.73;;;5.60;;
23310;SDS011;11828;51.508;18.118;2022-12-07T17:03:45;11.25;;;5.95;;
23310;SDS011;11828;51.508;18.118;2022-12-07T17:06:29;10.90;;;5.60;;
23310;SDS011;11828;51.508;18.118;2022-12-07T17:08:56;13.32;;;6.60;;
23310;SDS011;11828;51.508;18.118;2022-12-07T17:11:23;15.35;;;7.15;;
23310;SDS011;11828;51.508;18.118;2022-12-07T17:13:53;27.67;;;11.70;;
23310;SDS011;11828;51.508;18.118;2022-12-07T17:16:39;35.85;;;14.20;;
23310;SDS011;11828;51.508;18.118;2022-12-07T17:19:06;20.95;;;9.32;;